sensor_id;sensor_type;location;lat;lon;timestamp;P1;durP1;ratioP1;P2;durP2;ratioP2
44110;SDS011;29774;52.664;5.074;2024-03-17T00:01:37;4.10;;;1.67;;
44110;SDS011;29774;52.664;5.074;2024-03-17T00:04:03;6.70;;;2.03;;
44110;SDS011;29774;52.664;5.074;2024-03-17T00:06:29;6.07;;;1.65;;
44110;SDS011;29774;52.664;5.074;2024-03-17T00:08:56;5.25;;;1.55;;
44110;SDS011;29774;52.664;5.074;2024-03-17T00:11:21;5.82;;;1.40;;
44110;SDS011;29774;52.664;5.074;2024-03-17T00:13:47;3.40;;;1.27;;
44110;SDS011;29774;52.664;5.074;2024-03-17T00:16:13;2.40;;;1.38;;
44110;SDS011;29774;52.664;5.074;2024-03-17T00:18:39;3.33;;;1.48;;
44110;SDS011;29774;52.664;5.074;2024-03-17T00:21:05;7.85;;;1.25;;
44110;SDS011;29774;52.664;5.074;2024-03-17T00:23:31;5.32;;;1.10;;
44110;SDS011;29774;52.664;5.074;2024-03-17T00:25:57;3.45;;;1.20;;
44110;SDS011;29774;52.664;5.074;2024-03-17T00:28:22;4.53;;;1.13;;
44110;SDS011;29774;52.664;5.074;2024-03-17T00:30:49;3.33;;;1.40;;
44110;SDS011;29774;52.664;5.074;2024-03-17T00:33:15;3.92;;;1.50;;
44110;SDS011;29774;52.664;5.074;2024-03-17T00:35:41;2.05;;;0.95;;
44110;SDS011;29774;52.664;5.074;2024-03-17T00:38:06;4.63;;;1.85;;
44110;SDS011;29774;52.664;5.074;2024-03-17T00:40:38;2.15;;;0.82;;
44110;SDS011;29774;52.664;5.074;2024-03-17T00:43:06;3.45;;;1.50;;
44110;SDS011;29774;52.664;5.074;2024-03-17T00:45:31;4.65;;;1.52;;
44110;SDS011;29774;52.664;5.074;2024-03-17T00:47:57;6.90;;;1.60;;
44110;SDS011;29774;52.664;5.074;2024-03-17T00:50:23;2.70;;;1.35;;
44110;SDS011;29774;52.664;5.074;2024-03-17T00:52:48;5.00;;;1.48;;
44110;SDS011;29774;52.664;5.074;2024-03-17T00:55:14;3.55;;;1.52;;
44110;SDS011;29774;52.664;5.074;2024-03-17T00:57:40;3.10;;;1.13;;
44110;SDS011;29774;52.664;5.074;2024-03-17T01:00:06;4.18;;;1.42;;
44110;SDS011;29774;52.664;5.074;2024-03-17T01:02:35;4.95;;;1.73;;
44110;SDS011;29774;52.664;5.074;2024-03-17T01:05:00;3.88;;;1.58;;
44110;SDS011;29774;52.664;5.074;2024-03-17T01:07:26;7.05;;;1.42;;
44110;SDS011;29774;52.664;5.074;2024-03-17T01:09:51;5.70;;;1.35;;
44110;SDS011;29774;52.664;5.074;2024-03-17T01:12:17;2.13;;;1.33;;
44110;SDS011;29774;52.664;5.074;2024-03-17T01:14:43;6.70;;;1.63;;
44110;SDS011;29774;52.664;5.074;2024-03-17T01:17:09;4.15;;;1.42;;
44110;SDS011;29774;52.664;5.074;2024-03-17T01:19:34;10.82;;;1.60;;
44110;SDS011;29774;52.664;5.074;2024-03-17T01:22:00;6.63;;;2.10;;
44110;SDS011;29774;52.664;5.074;2024-03-17T01:24:26;4.45;;;1.48;;
44110;SDS011;29774;52.664;5.074;2024-03-17T01:26:56;4.75;;;1.50;;
44110;SDS011;29774;52.664;5.074;2024-03-17T01:29:25;5.63;;;1.77;;
44110;SDS011;29774;52.664;5.074;2024-03-17T01:31:51;5.22;;;1.33;;
44110;SDS011;29774;52.664;5.074;2024-03-17T01:34:18;5.38;;;1.40;;
44110;SDS011;29774;52.664;5.074;2024-03-17T01:36:44;5.43;;;1.40;;
44110;SDS011;29774;52.664;5.074;2024-03-17T01:39:09;4.53;;;1.70;;
44110;SDS011;29774;52.664;5.074;2024-03-17T01:41:36;3.97;;;1.60;;
44110;SDS011;29774;52.664;5.074;2024-03-17T01:44:02;4.88;;;1.77;;
44110;SDS011;29774;52.664;5.074;2024-03-17T01:46:27;4.63;;;1.73;;
44110;SDS011;29774;52.664;5.074;2024-03-17T01:48:53;4.78;;;1.70;;
44110;SDS011;29774;52.664;5.074;2024-03-17T01:51:19;3.50;;;1.60;;
44110;SDS011;29774;52.664;5.074;2024-03-17T01:53:46;4.47;;;2.38;;
44110;SDS011;29774;52.664;5.074;2024-03-17T01:56:12;2.15;;;1.45;;
44110;SDS011;29774;52.664;5.074;2024-03-17T01:58:41;7.82;;;2.40;;
44110;SDS011;29774;52.664;5.074;2024-03-17T02:01:09;9.32;;;2.10;;
44110;SDS011;29774;52.664;5.074;2024-03-17T02:03:35;5.22;;;2.08;;
44110;SDS011;29774;52.664;5.074;2024-03-17T02:06:01;8.18;;;2.42;;
44110;SDS011;29774;52.664;5.074;2024-03-17T02:08:26;5.40;;;2.05;;
44110;SDS011;29774;52.664;5.074;2024-03-17T02:10:53;4.30;;;2.15;;
44110;SDS011;29774;52.664;5.074;2024-03-17T02:13:20;7.38;;;2.40;;
44110;SDS011;29774;52.664;5.074;2024-03-17T02:15:49;7.78;;;2.38;;
44110;SDS011;29774;52.664;5.074;2024-03-17T02:18:14;3.70;;;1.98;;
44110;SDS011;29774;52.664;5.074;2024-03-17T02:20:40;7.03;;;2.75;;
44110;SDS011;29774;52.664;5.074;2024-03-17T02:23:22;3.80;;;2.30;;
44110;SDS011;29774;52.664;5.074;2024-03-17T02:25:51;6.25;;;2.78;;
44110;SDS011;29774;52.664;5.074;2024-03-17T02:28:17;5.53;;;2.58;;
44110;SDS011;29774;52.664;5.074;2024-03-17T02:30:43;5.57;;;1.83;;
44110;SDS011;29774;52.664;5.074;2024-03-17T02:33:09;5.22;;;2.03;;
44110;SDS011;29774;52.664;5.074;2024-03-17T02:35:35;7.25;;;2.15;;
44110;SDS011;29774;52.664;5.074;2024-03-17T02:38:01;7.18;;;2.20;;
44110;SDS011;29774;52.664;5.074;2024-03-17T02:40:27;5.68;;;2.17;;
44110;SDS011;29774;52.664;5.074;2024-03-17T02:42:54;3.80;;;1.65;;
44110;SDS011;29774;52.664;5.074;2024-03-17T02:45:20;4.55;;;2.40;;
44110;SDS011;29774;52.664;5.074;2024-03-17T02:47:46;6.47;;;2.13;;
44110;SDS011;29774;52.664;5.074;2024-03-17T02:50:11;10.38;;;2.50;;
44110;SDS011;29774;52.664;5.074;2024-03-17T02:52:38;5.63;;;2.10;;
44110;SDS011;29774;52.664;5.074;2024-03-17T02:55:04;6.40;;;2.17;;
44110;SDS011;29774;52.664;5.074;2024-03-17T02:57:30;4.90;;;2.00;;
44110;SDS011;29774;52.664;5.074;2024-03-17T02:59:57;8.75;;;2.47;;
44110;SDS011;29774;52.664;5.074;2024-03-17T03:02:29;7.45;;;2.63;;
44110;SDS011;29774;52.664;5.074;2024-03-17T03:04:54;6.05;;;2.30;;
44110;SDS011;29774;52.664;5.074;2024-03-17T03:07:20;4.07;;;2.10;;
44110;SDS011;29774;52.664;5.074;2024-03-17T03:09:45;7.07;;;2.22;;
44110;SDS011;29774;52.664;5.074;2024-03-17T03:12:12;3.92;;;2.10;;
44110;SDS011;29774;52.664;5.074;2024-03-17T03:14:37;4.85;;;1.98;;
44110;SDS011;29774;52.664;5.074;2024-03-17T03:17:03;4.10;;;1.98;;
44110;SDS011;29774;52.664;5.074;2024-03-17T03:19:29;5.95;;;2.20;;
44110;SDS011;29774;52.664;5.074;2024-03-17T03:21:55;6.35;;;2.20;;
44110;SDS011;29774;52.664;5.074;2024-03-17T03:24:21;7.50;;;2.40;;
44110;SDS011;29774;52.664;5.074;2024-03-17T03:26:47;7.63;;;2.20;;
44110;SDS011;29774;52.664;5.074;2024-03-17T03:29:13;7.15;;;2.00;;
44110;SDS011;29774;52.664;5.074;2024-03-17T03:31:39;9.10;;;2.50;;
44110;SDS011;29774;52.664;5.074;2024-03-17T03:34:05;7.95;;;2.10;;
44110;SDS011;29774;52.664;5.074;2024-03-17T03:36:33;7.85;;;2.00;;
44110;SDS011;29774;52.664;5.074;2024-03-17T03:39:00;7.70;;;2.50;;
44110;SDS011;29774;52.664;5.074;2024-03-17T03:41:26;6.45;;;2.15;;
44110;SDS011;29774;52.664;5.074;2024-03-17T03:43:51;5.30;;;2.63;;
44110;SDS011;29774;52.664;5.074;2024-03-17T03:46:17;6.30;;;2.58;;
44110;SDS011;29774;52.664;5.074;2024-03-17T03:48:43;5.30;;;2.40;;
44110;SDS011;29774;52.664;5.074;2024-03-17T03:51:09;6.18;;;3.05;;
44110;SDS011;29774;52.664;5.074;2024-03-17T03:53:35;6.63;;;2.75;;
44110;SDS011;29774;52.664;5.074;2024-03-17T03:56:03;8.07;;;3.08;;
44110;SDS011;29774;52.664;5.074;2024-03-17T03:58:31;4.50;;;2.38;;
44110;SDS011;29774;52.664;5.074;2024-03-17T04:01:00;6.78;;;2.83;;
44110;SDS011;29774;52.664;5.074;2024-03-17T04:03:28;3.70;;;2.10;;
44110;SDS011;29774;52.664;5.074;2024-03-17T04:06:00;5.80;;;2.45;;
44110;SDS011;29774;52.664;5.074;2024-03-17T04:08:30;6.70;;;2.50;;
44110;SDS011;29774;52.664;5.074;2024-03-17T04:10:56;6.85;;;2.80;;
44110;SDS011;29774;52.664;5.074;2024-03-17T04:13:22;11.10;;;3.33;;
44110;SDS011;29774;52.664;5.074;2024-03-17T04:15:48;4.95;;;2.83;;
44110;SDS011;29774;52.664;5.074;2024-03-17T04:18:14;6.25;;;2.70;;
44110;SDS011;29774;52.664;5.074;2024-03-17T04:20:42;4.63;;;2.83;;
44110;SDS011;29774;52.664;5.074;2024-03-17T04:23:08;6.57;;;2.72;;
44110;SDS011;29774;52.664;5.074;2024-03-17T04:25:34;6.63;;;3.08;;
44110;SDS011;29774;52.664;5.074;2024-03-17T04:27:59;6.55;;;3.75;;
44110;SDS011;29774;52.664;5.074;2024-03-17T04:30:25;5.43;;;3.88;;
44110;SDS011;29774;52.664;5.074;2024-03-17T04:32:50;5.28;;;3.15;;
44110;SDS011;29774;52.664;5.074;2024-03-17T04:35:17;6.18;;;3.80;;
44110;SDS011;29774;52.664;5.074;2024-03-17T04:37:43;5.18;;;3.55;;
44110;SDS011;29774;52.664;5.074;2024-03-17T04:40:08;5.40;;;3.58;;
44110;SDS011;29774;52.664;5.074;2024-03-17T04:42:35;7.45;;;4.47;;
44110;SDS011;29774;52.664;5.074;2024-03-17T04:45:00;6.60;;;3.55;;
44110;SDS011;29774;52.664;5.074;2024-03-17T04:47:26;6.38;;;3.53;;
44110;SDS011;29774;52.664;5.074;2024-03-17T04:49:51;5.40;;;3.53;;
44110;SDS011;29774;52.664;5.074;2024-03-17T04:52:17;6.65;;;3.90;;
44110;SDS011;29774;52.664;5.074;2024-03-17T04:54:43;6.13;;;4.47;;
44110;SDS011;29774;52.664;5.074;2024-03-17T04:57:09;7.90;;;3.83;;
44110;SDS011;29774;52.664;5.074;2024-03-17T04:59:35;7.28;;;4.15;;
44110;SDS011;29774;52.664;5.074;2024-03-17T05:02:01;5.50;;;4.38;;
44110;SDS011;29774;52.664;5.074;2024-03-17T05:04:27;7.45;;;3.90;;
44110;SDS011;29774;52.664;5.074;2024-03-17T05:06:53;6.05;;;3.90;;
44110;SDS011;29774;52.664;5.074;2024-03-17T05:09:19;10.20;;;4.40;;
44110;SDS011;29774;52.664;5.074;2024-03-17T05:11:45;5.60;;;4.05;;
44110;SDS011;29774;52.664;5.074;2024-03-17T05:14:12;7.15;;;4.18;;
44110;SDS011;29774;52.664;5.074;2024-03-17T05:16:38;6.93;;;4.25;;
44110;SDS011;29774;52.664;5.074;2024-03-17T05:19:04;9.13;;;4.38;;
44110;SDS011;29774;52.664;5.074;2024-03-17T05:21:30;8.10;;;4.35;;
44110;SDS011;29774;52.664;5.074;2024-03-17T05:24:00;5.63;;;4.03;;
44110;SDS011;29774;52.664;5.074;2024-03-17T05:26:26;6.32;;;4.13;;
44110;SDS011;29774;52.664;5.074;2024-03-17T05:28:52;6.65;;;3.63;;
44110;SDS011;29774;52.664;5.074;2024-03-17T05:31:18;6.82;;;4.10;;
44110;SDS011;29774;52.664;5.074;2024-03-17T05:33:46;5.50;;;4.28;;
44110;SDS011;29774;52.664;5.074;2024-03-17T05:36:12;8.32;;;4.00;;
44110;SDS011;29774;52.664;5.074;2024-03-17T05:38:38;6.47;;;4.07;;
44110;SDS011;29774;52.664;5.074;2024-03-17T05:41:05;6.00;;;4.15;;
44110;SDS011;29774;52.664;5.074;2024-03-17T05:43:32;6.32;;;4.55;;
44110;SDS011;29774;52.664;5.074;2024-03-17T05:46:01;7.80;;;4.43;;
44110;SDS011;29774;52.664;5.074;2024-03-17T05:48:27;8.55;;;4.13;;
44110;SDS011;29774;52.664;5.074;2024-03-17T05:50:57;6.53;;;4.60;;
44110;SDS011;29774;52.664;5.074;2024-03-17T05:53:22;6.72;;;4.90;;
44110;SDS011;29774;52.664;5.074;2024-03-17T05:55:49;7.75;;;4.30;;
44110;SDS011;29774;52.664;5.074;2024-03-17T05:58:15;10.65;;;4.15;;
44110;SDS011;29774;52.664;5.074;2024-03-17T06:00:41;7.40;;;4.43;;
44110;SDS011;29774;52.664;5.074;2024-03-17T06:03:06;10.50;;;4.70;;
44110;SDS011;29774;52.664;5.074;2024-03-17T06:05:35;9.27;;;4.00;;
44110;SDS011;29774;52.664;5.074;2024-03-17T06:08:02;5.65;;;4.40;;
44110;SDS011;29774;52.664;5.074;2024-03-17T06:10:29;7.88;;;4.50;;
44110;SDS011;29774;52.664;5.074;2024-03-17T06:12:56;7.38;;;4.43;;
44110;SDS011;29774;52.664;5.074;2024-03-17T06:15:22;5.28;;;3.72;;
44110;SDS011;29774;52.664;5.074;2024-03-17T06:17:49;7.95;;;4.50;;
44110;SDS011;29774;52.664;5.074;2024-03-17T06:20:17;7.07;;;4.07;;
44110;SDS011;29774;52.664;5.074;2024-03-17T06:22:43;7.30;;;3.90;;
44110;SDS011;29774;52.664;5.074;2024-03-17T06:25:08;7.07;;;4.32;;
44110;SDS011;29774;52.664;5.074;2024-03-17T06:27:34;6.15;;;4.38;;
44110;SDS011;29774;52.664;5.074;2024-03-17T06:30:00;6.68;;;3.97;;
44110;SDS011;29774;52.664;5.074;2024-03-17T06:32:29;9.32;;;4.20;;
44110;SDS011;29774;52.664;5.074;2024-03-17T06:34:57;7.25;;;4.22;;
44110;SDS011;29774;52.664;5.074;2024-03-17T06:37:32;9.73;;;4.63;;
44110;SDS011;29774;52.664;5.074;2024-03-17T06:39:58;6.15;;;4.95;;
44110;SDS011;29774;52.664;5.074;2024-03-17T06:42:24;5.25;;;3.85;;
44110;SDS011;29774;52.664;5.074;2024-03-17T06:44:49;7.20;;;4.47;;
44110;SDS011;29774;52.664;5.074;2024-03-17T06:47:16;6.78;;;4.20;;
44110;SDS011;29774;52.664;5.074;2024-03-17T06:49:41;6.22;;;4.15;;
44110;SDS011;29774;52.664;5.074;2024-03-17T06:52:08;6.03;;;4.38;;
44110;SDS011;29774;52.664;5.074;2024-03-17T06:54:34;9.07;;;4.65;;
44110;SDS011;29774;52.664;5.074;2024-03-17T06:57:00;5.75;;;4.22;;
44110;SDS011;29774;52.664;5.074;2024-03-17T06:59:26;7.30;;;4.55;;
44110;SDS011;29774;52.664;5.074;2024-03-17T07:01:51;6.95;;;4.47;;
44110;SDS011;29774;52.664;5.074;2024-03-17T07:04:17;7.00;;;4.50;;
44110;SDS011;29774;52.664;5.074;2024-03-17T07:06:43;6.97;;;4.63;;
44110;SDS011;29774;52.664;5.074;2024-03-17T07:09:08;6.00;;;4.93;;
44110;SDS011;29774;52.664;5.074;2024-03-17T07:11:34;8.90;;;4.93;;
44110;SDS011;29774;52.664;5.074;2024-03-17T07:14:00;9.48;;;4.55;;
44110;SDS011;29774;52.664;5.074;2024-03-17T07:16:26;8.88;;;4.32;;
44110;SDS011;29774;52.664;5.074;2024-03-17T07:18:52;6.88;;;4.57;;
44110;SDS011;29774;52.664;5.074;2024-03-17T07:21:21;8.15;;;4.70;;
44110;SDS011;29774;52.664;5.074;2024-03-17T07:23:47;8.15;;;4.65;;
44110;SDS011;29774;52.664;5.074;2024-03-17T07:26:12;7.53;;;5.15;;
44110;SDS011;29774;52.664;5.074;2024-03-17T07:28:39;6.70;;;4.43;;
44110;SDS011;29774;52.664;5.074;2024-03-17T07:31:05;4.75;;;4.30;;
44110;SDS011;29774;52.664;5.074;2024-03-17T07:33:34;6.50;;;4.68;;
44110;SDS011;29774;52.664;5.074;2024-03-17T07:36:00;4.93;;;4.43;;
44110;SDS011;29774;52.664;5.074;2024-03-17T07:38:26;8.35;;;4.93;;
44110;SDS011;29774;52.664;5.074;2024-03-17T07:40:56;7.15;;;4.55;;
44110;SDS011;29774;52.664;5.074;2024-03-17T07:43:27;8.07;;;5.03;;
44110;SDS011;29774;52.664;5.074;2024-03-17T07:46:11;7.72;;;5.25;;
44110;SDS011;29774;52.664;5.074;2024-03-17T07:48:39;6.40;;;5.13;;
44110;SDS011;29774;52.664;5.074;2024-03-17T07:51:07;7.75;;;5.15;;
44110;SDS011;29774;52.664;5.074;2024-03-17T07:53:37;6.72;;;4.97;;
44110;SDS011;29774;52.664;5.074;2024-03-17T07:56:04;7.20;;;4.90;;
44110;SDS011;29774;52.664;5.074;2024-03-17T07:58:39;5.60;;;4.93;;
44110;SDS011;29774;52.664;5.074;2024-03-17T08:01:06;9.75;;;4.82;;
44110;SDS011;29774;52.664;5.074;2024-03-17T08:03:34;7.55;;;4.95;;
44110;SDS011;29774;52.664;5.074;2024-03-17T08:06:01;7.90;;;4.65;;
44110;SDS011;29774;52.664;5.074;2024-03-17T08:08:28;7.38;;;5.18;;
44110;SDS011;29774;52.664;5.074;2024-03-17T08:10:54;8.68;;;5.53;;
44110;SDS011;29774;52.664;5.074;2024-03-17T08:13:20;7.32;;;4.82;;
44110;SDS011;29774;52.664;5.074;2024-03-17T08:15:49;5.70;;;4.68;;
44110;SDS011;29774;52.664;5.074;2024-03-17T08:18:24;8.13;;;5.18;;
44110;SDS011;29774;52.664;5.074;2024-03-17T08:20:52;7.70;;;5.07;;
44110;SDS011;29774;52.664;5.074;2024-03-17T08:23:18;6.85;;;4.55;;
44110;SDS011;29774;52.664;5.074;2024-03-17T08:25:55;6.40;;;5.15;;
44110;SDS011;29774;52.664;5.074;2024-03-17T08:28:24;7.18;;;5.05;;
44110;SDS011;29774;52.664;5.074;2024-03-17T08:30:54;6.93;;;4.80;;
44110;SDS011;29774;52.664;5.074;2024-03-17T08:33:21;6.57;;;4.97;;
44110;SDS011;29774;52.664;5.074;2024-03-17T08:38:22;6.72;;;5.30;;
44110;SDS011;29774;52.664;5.074;2024-03-17T08:40:52;7.80;;;5.07;;
44110;SDS011;29774;52.664;5.074;2024-03-17T08:43:18;7.07;;;5.07;;
44110;SDS011;29774;52.664;5.074;2024-03-17T08:45:44;6.07;;;4.78;;
44110;SDS011;29774;52.664;5.074;2024-03-17T08:48:19;8.77;;;5.47;;
44110;SDS011;29774;52.664;5.074;2024-03-17T08:50:49;6.07;;;4.88;;
44110;SDS011;29774;52.664;5.074;2024-03-17T08:53:16;7.80;;;5.72;;
44110;SDS011;29774;52.664;5.074;2024-03-17T08:55:41;8.10;;;5.28;;
44110;SDS011;29774;52.664;5.074;2024-03-17T08:58:07;8.80;;;5.30;;
44110;SDS011;29774;52.664;5.074;2024-03-17T09:00:34;6.05;;;5.10;;
44110;SDS011;29774;52.664;5.074;2024-03-17T09:03:01;9.70;;;5.45;;
44110;SDS011;29774;52.664;5.074;2024-03-17T09:05:27;7.03;;;5.07;;
44110;SDS011;29774;52.664;5.074;2024-03-17T09:07:53;8.30;;;5.68;;
44110;SDS011;29774;52.664;5.074;2024-03-17T09:10:20;7.47;;;5.53;;
44110;SDS011;29774;52.664;5.074;2024-03-17T09:12:46;7.05;;;5.47;;
44110;SDS011;29774;52.664;5.074;2024-03-17T09:15:12;6.75;;;5.40;;
44110;SDS011;29774;52.664;5.074;2024-03-17T09:17:38;7.18;;;5.85;;
44110;SDS011;29774;52.664;5.074;2024-03-17T09:20:05;8.05;;;5.90;;
44110;SDS011;29774;52.664;5.074;2024-03-17T09:22:36;7.18;;;5.80;;
44110;SDS011;29774;52.664;5.074;2024-03-17T09:25:04;6.07;;;4.97;;
44110;SDS011;29774;52.664;5.074;2024-03-17T09:27:32;9.93;;;5.57;;
44110;SDS011;29774;52.664;5.074;2024-03-17T09:29:59;7.43;;;5.93;;
44110;SDS011;29774;52.664;5.074;2024-03-17T09:32:25;7.78;;;5.78;;
44110;SDS011;29774;52.664;5.074;2024-03-17T09:34:51;10.35;;;6.25;;
44110;SDS011;29774;52.664;5.074;2024-03-17T09:37:16;7.05;;;5.20;;
44110;SDS011;29774;52.664;5.074;2024-03-17T09:39:42;8.13;;;5.95;;
44110;SDS011;29774;52.664;5.074;2024-03-17T09:42:15;7.68;;;5.85;;
44110;SDS011;29774;52.664;5.074;2024-03-17T09:44:45;6.57;;;4.63;;
44110;SDS011;29774;52.664;5.074;2024-03-17T09:47:14;7.38;;;5.78;;
44110;SDS011;29774;52.664;5.074;2024-03-17T09:49:43;6.07;;;5.40;;
44110;SDS011;29774;52.664;5.074;2024-03-17T09:52:10;10.07;;;6.50;;
44110;SDS011;29774;52.664;5.074;2024-03-17T09:55:00;6.78;;;5.78;;
44110;SDS011;29774;52.664;5.074;2024-03-17T09:57:33;9.73;;;5.85;;
44110;SDS011;29774;52.664;5.074;2024-03-17T10:00:03;9.02;;;5.60;;
44110;SDS011;29774;52.664;5.074;2024-03-17T10:02:41;6.97;;;5.57;;
44110;SDS011;29774;52.664;5.074;2024-03-17T10:05:20;7.38;;;5.75;;
44110;SDS011;29774;52.664;5.074;2024-03-17T10:07:52;7.97;;;5.55;;
44110;SDS011;29774;52.664;5.074;2024-03-17T10:10:18;7.47;;;6.10;;
44110;SDS011;29774;52.664;5.074;2024-03-17T10:12:49;8.05;;;5.85;;
44110;SDS011;29774;52.664;5.074;2024-03-17T10:15:19;7.70;;;6.63;;
44110;SDS011;29774;52.664;5.074;2024-03-17T10:17:45;7.35;;;6.63;;
44110;SDS011;29774;52.664;5.074;2024-03-17T10:20:11;9.35;;;6.22;;
44110;SDS011;29774;52.664;5.074;2024-03-17T10:23:25;7.70;;;6.32;;
44110;SDS011;29774;52.664;5.074;2024-03-17T10:25:31;7.55;;;6.00;;
44110;SDS011;29774;52.664;5.074;2024-03-17T10:27:58;8.65;;;6.15;;
44110;SDS011;29774;52.664;5.074;2024-03-17T10:30:26;8.70;;;4.95;;
44110;SDS011;29774;52.664;5.074;2024-03-17T10:38:05;8.60;;;5.80;;
44110;SDS011;29774;52.664;5.074;2024-03-17T10:40:32;7.38;;;5.05;;
44110;SDS011;29774;52.664;5.074;2024-03-17T10:43:01;6.03;;;5.43;;
44110;SDS011;29774;52.664;5.074;2024-03-17T10:45:27;7.72;;;5.93;;
44110;SDS011;29774;52.664;5.074;2024-03-17T10:48:00;11.35;;;5.47;;
44110;SDS011;29774;52.664;5.074;2024-03-17T10:50:28;8.43;;;6.03;;
44110;SDS011;29774;52.664;5.074;2024-03-17T10:52:58;8.63;;;6.15;;
44110;SDS011;29774;52.664;5.074;2024-03-17T10:55:28;7.63;;;5.50;;
44110;SDS011;29774;52.664;5.074;2024-03-17T10:58:01;9.88;;;6.15;;
44110;SDS011;29774;52.664;5.074;2024-03-17T11:00:33;8.15;;;6.32;;
44110;SDS011;29774;52.664;5.074;2024-03-17T11:03:01;7.88;;;6.03;;
44110;SDS011;29774;52.664;5.074;2024-03-17T11:05:27;10.15;;;6.35;;
44110;SDS011;29774;52.664;5.074;2024-03-17T11:07:58;8.80;;;6.15;;
44110;SDS011;29774;52.664;5.074;2024-03-17T11:10:28;10.93;;;6.22;;
44110;SDS011;29774;52.664;5.074;2024-03-17T11:12:57;9.88;;;6.13;;
44110;SDS011;29774;52.664;5.074;2024-03-17T11:20:39;8.93;;;5.55;;
44110;SDS011;29774;52.664;5.074;2024-03-17T11:23:07;9.25;;;5.43;;
44110;SDS011;29774;52.664;5.074;2024-03-17T11:25:38;8.77;;;5.28;;
44110;SDS011;29774;52.664;5.074;2024-03-17T11:28:06;10.00;;;5.80;;
44110;SDS011;29774;52.664;5.074;2024-03-17T11:47:00;9.50;;;5.60;;
44110;SDS011;29774;52.664;5.074;2024-03-17T11:54:38;7.88;;;5.05;;
44110;SDS011;29774;52.664;5.074;2024-03-17T11:57:05;8.75;;;5.47;;
44110;SDS011;29774;52.664;5.074;2024-03-17T11:59:33;7.78;;;5.28;;
44110;SDS011;29774;52.664;5.074;2024-03-17T12:01:59;7.20;;;4.85;;
44110;SDS011;29774;52.664;5.074;2024-03-17T12:04:27;8.70;;;5.57;;
44110;SDS011;29774;52.664;5.074;2024-03-17T12:06:56;9.95;;;4.90;;
44110;SDS011;29774;52.664;5.074;2024-03-17T12:09:24;5.85;;;5.00;;
44110;SDS011;29774;52.664;5.074;2024-03-17T12:11:58;8.32;;;5.13;;
44110;SDS011;29774;52.664;5.074;2024-03-17T12:14:25;6.25;;;5.05;;
44110;SDS011;29774;52.664;5.074;2024-03-17T12:16:52;7.10;;;4.93;;
44110;SDS011;29774;52.664;5.074;2024-03-17T12:19:19;10.25;;;5.18;;
44110;SDS011;29774;52.664;5.074;2024-03-17T12:21:46;7.95;;;4.85;;
44110;SDS011;29774;52.664;5.074;2024-03-17T12:24:17;8.48;;;4.90;;
44110;SDS011;29774;52.664;5.074;2024-03-17T12:26:44;8.73;;;5.35;;
44110;SDS011;29774;52.664;5.074;2024-03-17T12:29:25;6.43;;;5.30;;
44110;SDS011;29774;52.664;5.074;2024-03-17T12:31:58;8.07;;;5.38;;
44110;SDS011;29774;52.664;5.074;2024-03-17T12:34:26;7.57;;;5.22;;
44110;SDS011;29774;52.664;5.074;2024-03-17T12:36:54;6.75;;;4.82;;
44110;SDS011;29774;52.664;5.074;2024-03-17T12:39:22;5.97;;;4.75;;
44110;SDS011;29774;52.664;5.074;2024-03-17T12:42:01;7.30;;;4.75;;
44110;SDS011;29774;52.664;5.074;2024-03-17T12:44:35;6.72;;;4.80;;
44110;SDS011;29774;52.664;5.074;2024-03-17T12:47:03;7.30;;;5.05;;
44110;SDS011;29774;52.664;5.074;2024-03-17T12:49:31;6.90;;;5.05;;
44110;SDS011;29774;52.664;5.074;2024-03-17T12:52:01;7.22;;;5.32;;
44110;SDS011;29774;52.664;5.074;2024-03-17T12:54:27;7.28;;;4.85;;
44110;SDS011;29774;52.664;5.074;2024-03-17T12:57:04;6.82;;;5.03;;
44110;SDS011;29774;52.664;5.074;2024-03-17T12:59:49;6.32;;;4.53;;
44110;SDS011;29774;52.664;5.074;2024-03-17T13:02:34;8.13;;;5.20;;
44110;SDS011;29774;52.664;5.074;2024-03-17T13:05:18;6.07;;;4.68;;
44110;SDS011;29774;52.664;5.074;2024-03-17T13:07:48;7.10;;;4.70;;
44110;SDS011;29774;52.664;5.074;2024-03-17T13:10:18;6.88;;;4.88;;
44110;SDS011;29774;52.664;5.074;2024-03-17T13:12:44;7.03;;;4.82;;
44110;SDS011;29774;52.664;5.074;2024-03-17T13:15:14;6.50;;;4.03;;
44110;SDS011;29774;52.664;5.074;2024-03-17T13:17:42;5.20;;;3.70;;
44110;SDS011;29774;52.664;5.074;2024-03-17T13:20:10;5.25;;;3.63;;
44110;SDS011;29774;52.664;5.074;2024-03-17T13:22:40;5.15;;;4.35;;
44110;SDS011;29774;52.664;5.074;2024-03-17T13:25:13;6.13;;;4.43;;
44110;SDS011;29774;52.664;5.074;2024-03-17T13:27:40;6.10;;;3.90;;
44110;SDS011;29774;52.664;5.074;2024-03-17T13:30:07;5.22;;;4.35;;
44110;SDS011;29774;52.664;5.074;2024-03-17T13:32:34;6.45;;;4.30;;
44110;SDS011;29774;52.664;5.074;2024-03-17T13:35:00;6.93;;;3.97;;
44110;SDS011;29774;52.664;5.074;2024-03-17T13:37:27;5.05;;;4.07;;
44110;SDS011;29774;52.664;5.074;2024-03-17T13:39:52;5.95;;;4.40;;
44110;SDS011;29774;52.664;5.074;2024-03-17T13:42:18;6.18;;;4.38;;
44110;SDS011;29774;52.664;5.074;2024-03-17T13:44:45;6.82;;;4.72;;
44110;SDS011;29774;52.664;5.074;2024-03-17T13:47:11;6.63;;;4.60;;
44110;SDS011;29774;52.664;5.074;2024-03-17T13:49:39;8.45;;;5.10;;
44110;SDS011;29774;52.664;5.074;2024-03-17T13:52:04;7.55;;;4.65;;
44110;SDS011;29774;52.664;5.074;2024-03-17T13:54:30;6.78;;;4.53;;
44110;SDS011;29774;52.664;5.074;2024-03-17T13:56:56;8.43;;;4.53;;
44110;SDS011;29774;52.664;5.074;2024-03-17T13:59:23;5.07;;;3.35;;
44110;SDS011;29774;52.664;5.074;2024-03-17T14:01:50;8.38;;;4.82;;
44110;SDS011;29774;52.664;5.074;2024-03-17T14:04:16;7.88;;;4.75;;
44110;SDS011;29774;52.664;5.074;2024-03-17T14:06:45;8.07;;;5.10;;
44110;SDS011;29774;52.664;5.074;2024-03-17T14:09:12;6.55;;;4.97;;
44110;SDS011;29774;52.664;5.074;2024-03-17T14:11:37;6.65;;;4.30;;
44110;SDS011;29774;52.664;5.074;2024-03-17T14:14:04;9.18;;;5.22;;
44110;SDS011;29774;52.664;5.074;2024-03-17T14:16:31;23.60;;;6.28;;
44110;SDS011;29774;52.664;5.074;2024-03-17T14:18:57;11.15;;;4.82;;
44110;SDS011;29774;52.664;5.074;2024-03-17T14:21:23;8.55;;;5.13;;
44110;SDS011;29774;52.664;5.074;2024-03-17T14:23:49;6.53;;;5.13;;
44110;SDS011;29774;52.664;5.074;2024-03-17T14:26:14;6.78;;;5.05;;
44110;SDS011;29774;52.664;5.074;2024-03-17T14:28:40;8.90;;;5.28;;
44110;SDS011;29774;52.664;5.074;2024-03-17T14:31:06;7.55;;;5.25;;
44110;SDS011;29774;52.664;5.074;2024-03-17T14:33:31;9.10;;;5.57;;
44110;SDS011;29774;52.664;5.074;2024-03-17T14:35:57;6.70;;;5.45;;
44110;SDS011;29774;52.664;5.074;2024-03-17T14:38:23;9.00;;;5.10;;
44110;SDS011;29774;52.664;5.074;2024-03-17T14:40:51;8.63;;;4.90;;
44110;SDS011;29774;52.664;5.074;2024-03-17T14:43:18;7.68;;;5.32;;
44110;SDS011;29774;52.664;5.074;2024-03-17T14:45:44;9.27;;;5.40;;
44110;SDS011;29774;52.664;5.074;2024-03-17T14:48:10;8.15;;;5.47;;
44110;SDS011;29774;52.664;5.074;2024-03-17T14:50:37;7.78;;;5.40;;
44110;SDS011;29774;52.664;5.074;2024-03-17T14:53:03;7.45;;;5.35;;
44110;SDS011;29774;52.664;5.074;2024-03-17T14:55:30;6.75;;;5.55;;
44110;SDS011;29774;52.664;5.074;2024-03-17T14:57:56;7.93;;;5.68;;
44110;SDS011;29774;52.664;5.074;2024-03-17T15:00:21;7.93;;;5.60;;
44110;SDS011;29774;52.664;5.074;2024-03-17T15:02:50;9.80;;;5.82;;
44110;SDS011;29774;52.664;5.074;2024-03-17T15:05:16;8.07;;;5.53;;
44110;SDS011;29774;52.664;5.074;2024-03-17T15:07:44;12.38;;;6.65;;
44110;SDS011;29774;52.664;5.074;2024-03-17T15:10:10;9.50;;;6.05;;
44110;SDS011;29774;52.664;5.074;2024-03-17T15:12:37;11.90;;;5.93;;
44110;SDS011;29774;52.664;5.074;2024-03-17T15:15:05;8.95;;;6.00;;
44110;SDS011;29774;52.664;5.074;2024-03-17T15:17:33;6.03;;;4.65;;
44110;SDS011;29774;52.664;5.074;2024-03-17T15:19:59;7.43;;;5.18;;
44110;SDS011;29774;52.664;5.074;2024-03-17T15:22:25;7.47;;;6.55;;
44110;SDS011;29774;52.664;5.074;2024-03-17T15:24:51;11.98;;;5.47;;